Time;durP1;ratioP1;P1;durP2;ratioP2;P2;SDS_P1;SDS_P2;PMS_P1;PMS_P2;Temp;Humidity;BMP_temperature;BMP_pressure;BME280_temperature;BME280_humidity;BME280_pressure;Samples;Min_cycle;Max_cycle;Signal;HPM_P1;HPM_P2
2022/10/31 00:01:20;;;;;;;;;9.00;9.00;;;;;18.30;55.45;101389.94;5069925;27;45451;-58
2022/10/31 00:03:47;;;;;;;;;7.25;6.50;;;;;18.30;55.28;101391.75;5072678;27;45206;-58
2022/10/31 00:06:12;;;;;;;;;6.50;6.00;;;;;18.30;55.50;101389.09;5070940;28;45606;-58
2022/10/31 00:08:38;;;;;;;;;9.75;7.75;;;;;18.31;55.49;101388.13;5070621;28;45434;-59
2022/10/31 00:11:03;;;;;;;;;11.25;8.75;;;;;18.29;55.23;101390.00;5074388;27;61639;-58
2022/10/31 00:13:29;;;;;;;;;9.00;8.25;;;;;18.28;55.42;101396.25;5077807;27;45208;-58
2022/10/31 00:15:54;;;;;;;;;9.25;7.25;;;;;18.25;55.21;101401.69;5078223;27;58785;-58
2022/10/31 00:18:19;;;;;;;;;11.75;8.50;;;;;18.20;55.47;101401.91;5073492;27;75270;-58
2022/10/31 00:20:44;;;;;;;;;8.00;8.00;;;;;18.17;55.37;101402.94;5077447;27;73197;-58
2022/10/31 00:23:11;;;;;;;;;11.50;10.25;;;;;18.16;55.64;101401.19;5076254;27;55304;-58
2022/10/31 00:25:38;;;;;;;;;9.00;8.00;;;;;18.15;55.66;101402.16;5081042;27;45571;-58
2022/10/31 00:28:05;;;;;;;;;8.50;8.25;;;;;18.14;55.90;101389.81;5070403;27;46434;-58
2022/10/31 00:30:31;;;;;;;;;10.25;8.25;;;;;18.15;55.77;101390.66;5074630;27;45390;-57
2022/10/31 00:32:57;;;;;;;;;11.25;8.75;;;;;18.12;55.69;101385.53;5067115;28;61100;-59
2022/10/31 00:35:22;;;;;;;;;11.75;8.25;;;;;18.11;55.85;101383.81;5071093;27;62109;-58
2022/10/31 00:37:47;;;;;;;;;9.25;7.00;;;;;18.09;56.08;101388.34;5081754;27;45349;-58
2022/10/31 00:40:13;;;;;;;;;11.00;9.00;;;;;18.08;56.03;101389.25;5079028;27;45256;-59
2022/10/31 00:42:41;;;;;;;;;12.00;11.00;;;;;18.08;56.15;101391.91;5075840;28;45779;-59
2022/10/31 00:45:10;;;;;;;;;8.50;8.50;;;;;18.08;55.79;101391.91;5072930;28;45504;-59
2022/10/31 00:47:36;;;;;;;;;11.00;11.00;;;;;18.06;56.25;101392.00;5065373;28;45375;-59
2022/10/31 00:50:03;;;;;;;;;11.00;8.50;;;;;18.06;55.98;101391.13;5067446;28;45311;-59
2022/10/31 00:52:28;;;;;;;;;13.00;8.25;;;;;18.04;55.95;101396.47;5047712;28;46080;-59
2022/10/31 00:54:54;;;;;;;;;12.50;11.00;;;;;18.05;56.01;101390.28;5076720;27;45394;-59
2022/10/31 00:57:19;;;;;;;;;10.00;7.50;;;;;18.05;56.18;101392.06;5067318;27;75240;-59
2022/10/31 00:59:44;;;;;;;;;12.00;8.00;;;;;18.06;56.10;101392.00;5065448;28;45426;-59
2022/10/31 01:02:10;;;;;;;;;11.00;8.75;;;;;18.05;56.37;101389.41;5069563;27;63241;-59
2022/10/31 01:04:35;;;;;;;;;14.00;11.00;;;;;18.06;56.27;101384.06;5067055;28;65651;-59
2022/10/31 01:07:00;;;;;;;;;15.50;10.50;;;;;18.07;56.40;101390.19;5076828;27;45588;-59
2022/10/31 01:09:26;;;;;;;;;14.75;11.50;;;;;18.05;56.26;101379.69;5067398;27;69909;-59
2022/10/31 01:11:51;;;;;;;;;15.00;12.00;;;;;18.07;56.50;101379.59;5067582;27;46986;-59
2022/10/31 01:14:16;;;;;;;;;12.50;12.00;;;;;18.06;56.34;101373.47;5068868;28;45354;-60
2022/10/31 01:16:42;;;;;;;;;15.25;11.00;;;;;18.06;56.61;101359.34;5071287;27;69850;-59
2022/10/31 01:19:07;;;;;;;;;10.25;8.00;;;;;18.03;56.33;101355.91;5065127;28;45390;-58
2022/10/31 01:21:33;;;;;;;;;14.00;12.00;;;;;18.05;56.58;101357.63;5071613;27;57433;-59
2022/10/31 01:23:59;;;;;;;;;13.00;12.00;;;;;18.05;56.65;101358.50;5084822;27;45495;-59
2022/10/31 01:26:30;;;;;;;;;16.25;12.25;;;;;18.05;56.76;101352.34;5074163;27;46285;-59
2022/10/31 01:28:56;;;;;;;;;12.25;10.25;;;;;18.03;56.75;101345.31;5060680;28;45411;-59
2022/10/31 01:31:28;;;;;;;;;14.00;9.00;;;;;18.04;56.70;101343.50;5080621;27;45537;-59
2022/10/31 01:33:54;;;;;;;;;11.50;10.00;;;;;18.02;56.63;101345.38;5073648;27;45438;-59
2022/10/31 01:36:22;;;;;;;;;11.25;10.00;;;;;18.01;56.69;101344.53;5069959;27;46037;-59
2022/10/31 01:38:48;;;;;;;;;13.50;9.75;;;;;18.00;56.81;101334.00;5069323;28;45481;-59
2022/10/31 01:41:17;;;;;;;;;12.50;11.00;;;;;18.00;56.89;101339.31;5077838;27;45391;-59
2022/10/31 01:43:42;;;;;;;;;14.00;12.00;;;;;18.02;56.87;101342.75;5069563;28;45275;-59
2022/10/31 01:46:08;;;;;;;;;16.00;12.00;;;;;18.00;56.82;101337.50;5067394;28;45343;-58
2022/10/31 01:48:33;;;;;;;;;14.50;12.50;;;;;18.01;56.83;101339.25;5067538;27;73014;-59
2022/10/31 01:50:59;;;;;;;;;10.75;10.00;;;;;18.02;56.72;101335.69;5066921;28;45443;-59
2022/10/31 01:53:24;;;;;;;;;13.25;10.50;;;;;18.02;56.82;101325.06;5073416;28;45430;-59
2022/10/31 01:55:50;;;;;;;;;14.25;13.25;;;;;18.02;56.90;101318.91;5070432;27;54751;-58
2022/10/31 01:58:25;;;;;;;;;13.75;12.50;;;;;18.03;56.86;101323.28;5068451;28;65552;-58
2022/10/31 02:00:54;;;;;;;;;12.25;11.75;;;;;18.04;57.02;101319.69;5066072;28;45449;-59
2022/10/31 02:03:20;;;;;;;;;14.50;12.00;;;;;18.06;56.87;101322.25;5077432;27;45497;-59
2022/10/31 02:05:46;;;;;;;;;16.25;12.75;;;;;18.07;56.88;101318.69;5072934;28;46367;-59
2022/10/31 02:08:40;;;;;;;;;15.50;12.00;;;;;18.07;56.94;101329.28;5067740;27;73459;-59
2022/10/31 02:11:07;;;;;;;;;15.00;12.50;;;;;18.06;56.93;101324.91;5052353;27;45455;-59
2022/10/31 02:13:33;;;;;;;;;20.00;13.50;;;;;18.06;56.79;101320.50;5070702;27;73241;-59
2022/10/31 02:15:59;;;;;;;;;14.00;13.25;;;;;18.05;57.02;101318.75;5080694;27;47335;-59
2022/10/31 02:18:29;;;;;;;;;15.00;11.75;;;;;18.04;56.94;101314.38;5069740;27;45390;-59
2022/10/31 02:21:06;;;;;;;;;9.75;9.75;;;;;18.02;57.06;101319.78;5062476;28;45486;-59
2022/10/31 02:23:56;;;;;;;;;15.50;12.75;;;;;18.04;57.26;101309.09;5063878;28;45292;-59
2022/10/31 02:26:39;;;;;;;;;15.00;14.00;;;;;18.04;57.12;101303.78;5077762;27;46298;-59
2022/10/31 02:29:27;;;;;;;;;14.75;12.75;;;;;18.02;57.23;101298.59;5064235;28;47449;-59
2022/10/31 02:32:09;;;;;;;;;14.00;11.50;;;;;17.99;57.35;101290.78;5079432;27;46954;-59
2022/10/31 02:34:39;;;;;;;;;15.50;13.75;;;;;17.96;57.43;101292.72;5103784;27;45240;-59
2022/10/31 02:37:14;;;;;;;;;19.00;15.50;;;;;17.91;57.54;101295.59;5060794;28;45557;-59
2022/10/31 02:39:56;;;;;;;;;22.50;15.25;;;;;17.89;57.28;101301.91;5059561;27;45360;-59
2022/10/31 02:42:57;;;;;;;;;20.00;17.75;;;;;17.86;57.56;101291.47;5068150;27;45431;-59
2022/10/31 02:45:50;;;;;;;;;16.75;13.75;;;;;17.84;57.54;101291.50;5057970;28;45349;-59
2022/10/31 02:48:19;;;;;;;;;23.00;17.50;;;;;17.82;57.74;101274.84;5063247;27;45513;-58
2022/10/31 02:50:53;;;;;;;;;17.50;16.25;;;;;17.83;57.80;101274.75;5059771;28;45450;-58
2022/10/31 02:53:18;;;;;;;;;18.00;16.00;;;;;17.84;57.77;101281.75;5053511;28;45549;-59
2022/10/31 02:55:58;;;;;;;;;18.50;15.25;;;;;17.84;57.64;101276.47;5069026;27;72973;-58
2022/10/31 02:58:27;;;;;;;;;22.00;18.25;;;;;17.84;57.93;101280.91;5074070;28;45491;-59
2022/10/31 03:01:14;;;;;;;;;19.25;16.25;;;;;17.82;58.12;101275.69;5059088;28;45569;-60
2022/10/31 03:04:14;;;;;;;;;19.25;17.25;;;;;17.80;57.95;101277.56;5102191;27;45625;-59
2022/10/31 03:06:46;;;;;;;;;20.25;16.00;;;;;17.79;58.03;101274.97;5072007;27;45556;-58
2022/10/31 03:09:24;;;;;;;;;22.25;17.25;;;;;17.76;58.13;101273.34;5061537;28;47232;-59
2022/10/31 03:12:01;;;;;;;;;22.00;17.50;;;;;17.76;58.15;101269.81;5065118;28;45411;-59
2022/10/31 03:15:12;;;;;;;;;20.50;17.00;;;;;17.76;58.13;101268.06;5065656;27;45400;-59
2022/10/31 03:18:02;;;;;;;;;21.25;17.00;;;;;17.76;57.97;101262.75;5068403;27;45506;-58
2022/10/31 03:20:34;;;;;;;;;17.00;17.00;;;;;17.74;58.15;101267.28;5071383;27;45559;-58
2022/10/31 03:23:01;;;;;;;;;22.75;19.00;;;;;17.74;58.35;101269.94;5070945;28;45861;-58
2022/10/31 03:25:27;;;;;;;;;17.75;16.75;;;;;17.73;57.98;101270.84;5074015;27;45390;-58
2022/10/31 03:27:53;;;;;;;;;20.75;17.00;;;;;17.73;58.38;101262.91;5072052;28;45467;-58
2022/10/31 03:30:19;;;;;;;;;17.75;16.75;;;;;17.74;58.27;101258.44;5063132;27;61626;-58
2022/10/31 03:32:48;;;;;;;;;24.25;19.75;;;;;17.74;58.18;101256.69;5072130;27;45545;-59
2022/10/31 03:35:15;;;;;;;;;25.50;20.25;;;;;17.74;58.30;101251.41;5068712;27;45499;-58
2022/10/31 03:37:42;;;;;;;;;21.75;19.25;;;;;17.74;58.32;101250.50;5063883;28;45188;-58
2022/10/31 03:40:09;;;;;;;;;20.25;20.00;;;;;17.74;58.40;101256.69;5061131;28;45394;-58
2022/10/31 03:42:40;;;;;;;;;22.50;17.50;;;;;17.76;58.24;101251.28;5073050;27;45397;-59
2022/10/31 03:45:13;;;;;;;;;20.75;18.00;;;;;17.77;58.47;101240.63;5074614;28;45465;-59
2022/10/31 03:47:38;;;;;;;;;23.25;19.75;;;;;17.78;58.24;101234.41;5061073;28;45522;-58
2022/10/31 03:50:06;;;;;;;;;24.50;15.75;;;;;17.78;58.45;101237.06;5064027;27;45415;-59
2022/10/31 03:52:31;;;;;;;;;16.00;16.00;;;;;17.78;58.56;101242.34;5068345;27;45773;-58
2022/10/31 03:55:00;;;;;;;;;23.67;20.00;;;;;17.78;58.34;101236.22;5067418;27;45316;-59
2022/10/31 03:57:40;;;;;;;;;23.25;20.50;;;;;17.78;58.39;101230.91;5063027;27;45505;-59
2022/10/31 04:00:09;;;;;;;;;27.00;21.25;;;;;17.77;58.42;101230.03;5066767;28;45217;-59
2022/10/31 04:02:40;;;;;;;;;23.75;18.75;;;;;17.79;58.33;101233.47;5073660;28;45447;-59
2022/10/31 04:05:06;;;;;;;;;25.25;20.00;;;;;17.80;58.48;101223.75;5066958;27;45745;-59
2022/10/31 04:07:38;;;;;;;;;26.25;20.50;;;;;17.80;58.33;101231.69;5058835;28;45686;-59
2022/10/31 04:10:07;;;;;;;;;23.50;21.00;;;;;17.80;58.39;101226.41;5064728;27;45472;-58
2022/10/31 04:12:34;;;;;;;;;21.50;20.50;;;;;17.79;58.37;101220.22;5055114;28;45874;-59
2022/10/31 04:15:02;;;;;;;;;24.25;17.50;;;;;17.81;58.60;101217.50;5061495;27;62786;-59
2022/10/31 04:17:30;;;;;;;;;25.75;22.00;;;;;17.82;58.65;101216.59;5063158;28;45765;-59
2022/10/31 04:19:55;;;;;;;;;24.50;18.25;;;;;17.82;58.58;101221.88;5071893;27;46384;-59
2022/10/31 04:22:20;;;;;;;;;24.00;18.00;;;;;17.83;58.65;101215.66;5073516;27;73023;-59
2022/10/31 04:24:46;;;;;;;;;20.25;18.25;;;;;17.84;58.57;101217.38;5074611;27;57628;-59
2022/10/31 04:27:11;;;;;;;;;24.00;18.75;;;;;17.83;58.32;101216.53;5068043;27;59213;-59
2022/10/31 04:29:36;;;;;;;;;23.25;20.50;;;;;17.84;58.63;101220.00;5067865;28;69364;-58
2022/10/31 04:32:02;;;;;;;;;21.75;18.75;;;;;17.83;58.57;101221.81;5072677;27;63732;-59
2022/10/31 04:34:27;;;;;;;;;18.00;17.75;;;;;17.83;58.53;101220.97;5070627;27;45256;-59
2022/10/31 04:36:52;;;;;;;;;22.75;19.25;;;;;17.82;58.60;101225.38;5063918;28;45549;-59
2022/10/31 04:39:18;;;;;;;;;23.75;20.50;;;;;17.82;58.64;101220.09;5074745;27;71349;-59
2022/10/31 04:41:43;;;;;;;;;23.50;18.00;;;;;17.82;58.81;101217.44;5074482;27;67504;-59
2022/10/31 04:44:08;;;;;;;;;24.75;18.00;;;;;17.80;58.80;101213.16;5067236;27;60429;-59
2022/10/31 04:46:34;;;;;;;;;18.00;16.00;;;;;17.76;58.82;101209.81;5063751;27;62045;-58
2022/10/31 04:48:59;;;;;;;;;19.25;17.75;;;;;17.72;58.95;101208.22;5077921;27;45387;-59
2022/10/31 04:51:24;;;;;;;;;19.25;14.50;;;;;17.70;58.87;101203.97;5073230;28;45590;-58
2022/10/31 04:53:50;;;;;;;;;21.25;15.00;;;;;17.68;59.01;101203.19;5068124;28;45523;-59
2022/10/31 04:56:15;;;;;;;;;16.75;16.75;;;;;17.65;58.90;101196.22;5068117;28;54461;-59
2022/10/31 04:58:40;;;;;;;;;18.00;17.00;;;;;17.65;58.85;101188.28;5060628;27;72523;-58
2022/10/31 05:01:06;;;;;;;;;20.00;17.25;;;;;17.64;59.00;101176.84;5070562;28;64281;-59
2022/10/31 05:03:31;;;;;;;;;20.50;16.00;;;;;17.63;59.15;101174.28;5072834;28;45552;-58
2022/10/31 05:05:56;;;;;;;;;19.00;14.75;;;;;17.63;59.13;101169.84;5067870;27;68414;-59
2022/10/31 05:08:22;;;;;;;;;20.25;14.75;;;;;17.64;58.88;101168.06;5071046;27;71081;-59
2022/10/31 05:10:47;;;;;;;;;17.75;16.75;;;;;17.64;59.20;101176.84;5080823;27;47244;-59
2022/10/31 05:13:14;;;;;;;;;19.50;16.00;;;;;17.65;58.93;101183.00;5064433;28;46082;-59
2022/10/31 05:15:40;;;;;;;;;14.75;12.50;;;;;17.64;58.81;101174.22;5073970;28;45323;-58
2022/10/31 05:18:05;;;;;;;;;14.75;13.25;;;;;17.65;58.85;101170.66;5067857;28;45425;-58
2022/10/31 05:20:31;;;;;;;;;12.25;12.25;;;;;17.66;59.04;101160.91;5077399;27;45302;-58
2022/10/31 05:22:58;;;;;;;;;16.00;14.00;;;;;17.67;58.98;101159.09;5073827;28;47251;-59
2022/10/31 05:25:26;;;;;;;;;16.50;13.25;;;;;17.68;58.86;101156.38;5079174;27;45505;-58
2022/10/31 05:27:52;;;;;;;;;13.00;12.25;;;;;17.69;58.98;101146.66;5067301;27;46389;-59
2022/10/31 05:30:23;;;;;;;;;16.25;12.75;;;;;17.69;58.90;101139.59;5072729;27;46028;-59
2022/10/31 05:32:50;;;;;;;;;14.50;13.25;;;;;17.70;58.84;101135.97;5068116;27;45288;-59
2022/10/31 05:35:18;;;;;;;;;15.75;14.00;;;;;17.70;58.84;101135.97;5067826;27;45325;-58
2022/10/31 05:37:44;;;;;;;;;13.75;12.50;;;;;17.69;59.04;101130.75;5070059;27;46484;-58
2022/10/31 05:40:11;;;;;;;;;16.25;13.25;;;;;17.68;58.95;101144.94;5065044;27;46228;-58
2022/10/31 05:42:41;;;;;;;;;15.50;12.50;;;;;17.67;59.17;101141.47;5076359;27;45455;-58
2022/10/31 05:45:11;;;;;;;;;15.75;14.00;;;;;17.66;59.03;101139.72;5079930;27;45536;-59
2022/10/31 05:47:37;;;;;;;;;14.75;12.75;;;;;17.64;58.99;101139.81;5070433;27;46529;-58
2022/10/31 05:50:03;;;;;;;;;13.25;12.50;;;;;17.64;59.04;101150.38;5065690;27;45479;-59
2022/10/31 05:52:28;;;;;;;;;14.25;13.00;;;;;17.65;59.05;101140.66;5071472;27;45231;-58
2022/10/31 05:54:54;;;;;;;;;16.50;12.50;;;;;17.64;58.81;101136.31;5079142;27;45620;-58
2022/10/31 05:57:19;;;;;;;;;13.75;12.50;;;;;17.66;59.05;101142.38;5062722;27;62062;-59
2022/10/31 05:59:44;;;;;;;;;15.75;13.00;;;;;17.65;58.84;101133.59;5071902;27;70267;-58
2022/10/31 06:02:09;;;;;;;;;14.75;10.00;;;;;17.65;58.97;101130.06;5059859;28;59418;-59
2022/10/31 06:04:35;;;;;;;;;15.50;13.50;;;;;17.65;59.04;101125.66;5076283;27;58532;-59
2022/10/31 06:07:00;;;;;;;;;17.50;13.75;;;;;17.67;58.81;101130.00;5061557;27;75229;-59
2022/10/31 06:09:25;;;;;;;;;15.00;12.75;;;;;17.66;58.88;101121.19;5060056;28;67848;-59
2022/10/31 06:11:51;;;;;;;;;14.25;10.25;;;;;17.66;58.68;101115.91;5077985;27;52506;-59
2022/10/31 06:14:16;;;;;;;;;12.00;10.25;;;;;17.68;58.88;101123.78;5060643;27;71355;-59
2022/10/31 06:16:41;;;;;;;;;12.75;11.50;;;;;17.69;58.64;101120.19;5071844;27;71233;-59
2022/10/31 06:19:07;;;;;;;;;14.50;9.75;;;;;17.69;58.67;101115.75;5070682;27;71640;-59
2022/10/31 06:21:32;;;;;;;;;12.25;8.00;;;;;17.71;58.54;101111.25;5069581;28;67019;-59
2022/10/31 06:23:57;;;;;;;;;12.00;11.00;;;;;17.71;58.41;101105.09;5069998;27;69595;-59
2022/10/31 06:26:23;;;;;;;;;12.50;9.00;;;;;17.71;58.54;101095.34;5072334;27;57964;-60
2022/10/31 06:28:48;;;;;;;;;10.75;9.75;;;;;17.71;58.28;101103.31;5076720;28;73110;-60
2022/10/31 06:31:13;;;;;;;;;10.25;8.50;;;;;17.70;58.33;101101.56;5062351;28;45516;-59
2022/10/31 06:33:41;;;;;;;;;8.75;8.50;;;;;17.70;58.32;101103.38;5067483;28;55704;-59
2022/10/31 06:36:06;;;;;;;;;11.50;8.75;;;;;17.70;58.38;101106.88;5073592;28;47294;-59
2022/10/31 06:38:32;;;;;;;;;12.00;8.00;;;;;17.69;58.44;101104.28;5079809;27;45607;-59
2022/10/31 06:40:57;;;;;;;;;12.75;9.25;;;;;17.70;58.32;101106.88;5087977;27;62899;-58
2022/10/31 06:43:23;;;;;;;;;10.25;8.75;;;;;17.72;58.27;101112.09;5078974;28;67535;-59
2022/10/31 06:45:48;;;;;;;;;12.75;6.75;;;;;17.72;58.30;101104.16;5062009;28;48508;-58
2022/10/31 06:48:13;;;;;;;;;11.50;8.00;;;;;17.74;58.33;101104.91;5076412;27;45437;-59
2022/10/31 06:50:39;;;;;;;;;11.00;10.50;;;;;17.73;58.47;101101.44;5079875;27;46398;-58
2022/10/31 06:53:04;;;;;;;;;13.25;8.50;;;;;17.74;58.17;101096.97;5076825;27;51272;-59
2022/10/31 06:55:29;;;;;;;;;12.25;9.50;;;;;17.75;58.26;101093.41;5073249;28;46056;-59
2022/10/31 06:57:57;;;;;;;;;13.75;8.75;;;;;17.76;58.14;101100.41;5075817;28;68183;-59
2022/10/31 07:00:23;;;;;;;;;9.50;8.25;;;;;17.75;58.15;101096.91;5079951;28;45414;-58
2022/10/31 07:03:00;;;;;;;;;11.75;10.75;;;;;17.77;58.38;101105.63;5076973;28;45765;-58
2022/10/31 07:05:26;;;;;;;;;12.00;11.00;;;;;17.77;58.25;101096.81;5066605;27;47681;-59
2022/10/31 07:07:56;;;;;;;;;15.25;10.50;;;;;17.78;58.41;101091.47;5065551;27;45822;-58
2022/10/31 07:10:23;;;;;;;;;14.00;12.00;;;;;17.78;58.11;101095.91;5074343;27;45478;-60
2022/10/31 07:12:54;;;;;;;;;13.75;12.00;;;;;17.78;58.43;101094.09;5069290;27;45435;-59
2022/10/31 07:15:19;;;;;;;;;15.50;11.75;;;;;17.76;58.39;101089.81;5074128;27;45555;-58
2022/10/31 07:17:45;;;;;;;;;12.75;9.75;;;;;17.78;58.36;101094.09;5068865;27;45507;-59
2022/10/31 07:20:10;;;;;;;;;13.50;10.50;;;;;17.79;58.50;101089.66;5065486;28;45403;-58
2022/10/31 07:22:36;;;;;;;;;12.50;8.00;;;;;17.79;58.45;101095.81;5070274;28;45517;-59
2022/10/31 07:25:02;;;;;;;;;13.25;11.00;;;;;17.81;58.43;101090.44;5077962;28;45733;-58
2022/10/31 07:27:27;;;;;;;;;12.50;10.50;;;;;17.82;58.54;101092.16;5070599;28;45454;-59
2022/10/31 07:29:53;;;;;;;;;11.50;10.25;;;;;17.83;58.49;101078.00;5061977;27;45666;-58
2022/10/31 07:32:18;;;;;;;;;15.00;11.00;;;;;17.85;58.58;101081.41;5074896;27;45413;-59
2022/10/31 07:34:44;;;;;;;;;11.75;9.50;;;;;17.84;58.65;101082.34;5066895;27;45335;-59
2022/10/31 07:37:09;;;;;;;;;14.25;11.25;;;;;17.86;58.74;101077.84;5074979;27;68517;-60
2022/10/31 07:39:34;;;;;;;;;12.25;11.00;;;;;17.86;58.43;101084.94;5063149;27;45480;-60
2022/10/31 07:42:00;;;;;;;;;15.75;12.00;;;;;17.88;58.88;101080.41;5078993;28;54559;-58
2022/10/31 07:44:25;;;;;;;;;13.50;11.00;;;;;17.87;58.32;101079.56;5059686;27;46932;-59
2022/10/31 07:46:51;;;;;;;;;13.25;11.25;;;;;17.87;58.67;101086.66;5072064;27;45511;-58
2022/10/31 07:49:16;;;;;;;;;17.00;13.00;;;;;17.88;58.78;101086.56;5078125;28;45350;-58
2022/10/31 07:51:41;;;;;;;;;10.50;10.00;;;;;17.88;58.57;101086.56;5072384;27;45388;-58
2022/10/31 07:54:07;;;;;;;;;24.75;15.75;;;;;17.89;58.98;101082.16;5070993;27;53334;-59
2022/10/31 07:56:32;;;;;;;;;16.50;14.75;;;;;17.87;58.82;101084.88;5065410;27;45461;-59
2022/10/31 07:58:58;;;;;;;;;17.25;15.00;;;;;17.86;58.82;101079.66;5080891;28;45374;-59
2022/10/31 08:01:23;;;;;;;;;18.50;14.25;;;;;17.85;58.95;101078.78;5072192;27;45469;-58
2022/10/31 08:03:48;;;;;;;;;15.50;12.75;;;;;17.84;58.75;101079.69;5064840;28;52696;-59
2022/10/31 08:06:14;;;;;;;;;18.75;14.25;;;;;17.86;59.01;101082.28;5071835;27;72393;-59
2022/10/31 08:08:39;;;;;;;;;19.25;15.25;;;;;17.84;59.09;101069.94;5080146;27;45383;-58
2022/10/31 08:11:05;;;;;;;;;23.25;13.75;;;;;17.84;59.01;101079.69;5063563;27;46065;-58
2022/10/31 08:13:30;;;;;;;;;19.25;14.00;;;;;17.85;58.95;101076.13;5064120;27;48248;-58
2022/10/31 08:16:03;;;;;;;;;15.50;12.00;;;;;17.84;59.00;101074.41;5078103;27;45350;-57
2022/10/31 08:18:28;;;;;;;;;16.25;14.50;;;;;17.84;58.96;101074.41;5072250;27;45268;-59
2022/10/31 08:20:53;;;;;;;;;19.00;16.50;;;;;17.82;59.03;101074.47;5066222;27;45358;-58
2022/10/31 08:23:19;;;;;;;;;17.50;14.00;;;;;17.80;58.78;101071.06;5076980;27;73514;-57
2022/10/31 08:25:46;;;;;;;;;17.50;14.00;;;;;17.78;59.18;101064.97;5068248;27;67071;-58
2022/10/31 08:28:12;;;;;;;;;20.00;16.75;;;;;17.81;59.10;101072.78;5081401;27;45354;-58
2022/10/31 08:30:38;;;;;;;;;24.50;18.50;;;;;17.81;59.07;101062.19;5076062;27;45688;-58
2022/10/31 08:33:08;;;;;;;;;18.75;15.25;;;;;17.80;59.20;101052.53;5069424;28;47024;-58
2022/10/31 08:35:34;;;;;;;;;23.00;16.50;;;;;17.79;59.18;101050.78;5068817;27;45266;-58
2022/10/31 08:38:00;;;;;;;;;18.00;15.75;;;;;17.80;59.01;101046.38;5082200;27;45267;-58
2022/10/31 08:40:27;;;;;;;;;22.50;19.00;;;;;17.80;59.42;101039.28;5076807;27;45391;-58
2022/10/31 08:43:10;;;;;;;;;17.50;10.75;;;;;17.82;59.22;101040.06;5083281;27;45513;-58
2022/10/31 08:45:36;;;;;;;;;27.50;23.00;;;;;17.83;58.86;101035.63;5080367;27;45308;-58
2022/10/31 08:48:04;;;;;;;;;35.50;28.50;;;;;17.84;59.20;101024.09;5070991;28;45358;-58
2022/10/31 08:50:31;;;;;;;;;25.50;20.50;;;;;17.86;59.34;101022.25;5082981;27;45633;-57
2022/10/31 08:53:10;;;;;;;;;22.75;18.50;;;;;17.87;59.23;101020.47;5079396;27;47011;-58
2022/10/31 08:55:36;;;;;;;;;25.25;21.25;;;;;17.89;59.22;101018.59;5060909;27;45598;-58
2022/10/31 08:58:03;;;;;;;;;23.00;19.25;;;;;17.89;58.89;101015.94;5060978;27;45707;-58
2022/10/31 09:00:28;;;;;;;;;21.00;17.50;;;;;17.89;59.04;101000.91;5065171;27;47033;-58
2022/10/31 09:02:55;;;;;;;;;22.75;18.00;;;;;17.92;59.04;100990.16;5051768;28;47243;-59
2022/10/31 09:05:21;;;;;;;;;23.50;15.50;;;;;17.94;59.08;100982.13;5076482;27;45885;-59
2022/10/31 09:07:46;;;;;;;;;23.00;19.00;;;;;17.99;59.14;100980.09;5073131;27;45428;-59
2022/10/31 09:10:11;;;;;;;;;24.25;21.00;;;;;18.00;59.16;100977.34;5079177;27;45552;-60
2022/10/31 09:12:37;;;;;;;;;26.50;19.50;;;;;18.04;59.18;100975.38;5074856;27;67831;-60
2022/10/31 09:15:02;;;;;;;;;26.75;22.50;;;;;18.07;59.00;100972.56;5075069;27;59708;-60
2022/10/31 09:17:28;;;;;;;;;22.25;19.25;;;;;18.10;59.24;100964.47;5079074;27;45417;-60
2022/10/31 09:19:54;;;;;;;;;21.50;17.00;;;;;18.15;59.04;100953.59;5078261;27;45426;-60
2022/10/31 09:22:19;;;;;;;;;22.50;19.00;;;;;18.16;58.90;100942.94;5072070;27;45297;-60
2022/10/31 09:24:45;;;;;;;;;22.75;19.00;;;;;18.18;58.84;100943.72;5074419;27;60841;-60
2022/10/31 09:27:10;;;;;;;;;22.75;20.25;;;;;18.20;58.88;100948.91;5063604;27;45494;-61
2022/10/31 09:29:35;;;;;;;;;26.00;24.50;;;;;18.24;58.99;100944.28;5074526;28;45406;-61
2022/10/31 09:32:01;;;;;;;;;22.00;18.50;;;;;18.27;58.79;100942.31;5077863;27;46141;-47
2022/10/31 09:34:26;;;;;;;;;25.50;21.75;;;;;18.31;59.08;100938.59;5072295;27;56624;-51
2022/10/31 09:36:52;;;;;;;;;26.00;21.00;;;;;18.35;58.94;100931.31;5052640;27;45302;-50
2022/10/31 09:39:18;;;;;;;;;27.50;20.75;;;;;18.37;58.59;100930.28;5063774;28;53842;-54
2022/10/31 09:42:01;;;;;;;;;20.00;18.75;;;;;18.42;58.76;100934.47;5072473;28;45594;-53
2022/10/31 09:44:51;;;;;;;;;27.25;21.75;;;;;18.43;58.85;100931.72;5063139;27;45577;-54
2022/10/31 09:47:38;;;;;;;;;23.75;21.50;;;;;18.45;58.45;100923.69;5077472;28;45325;-51
2022/10/31 09:50:29;;;;;;;;;21.50;19.00;;;;;18.46;58.59;100918.31;5064675;28;45357;-48
2022/10/31 09:53:40;;;;;;;;;21.00;18.75;;;;;18.47;58.67;100913.84;5064175;28;46293;-50
2022/10/31 09:56:10;;;;;;;;;21.00;20.50;;;;;18.48;58.22;100911.13;5055275;27;45441;-52
2022/10/31 09:58:41;;;;;;;;;25.75;22.25;;;;;18.45;58.65;100906.00;5074294;27;45268;-52
2022/10/31 10:01:28;;;;;;;;;16.75;14.25;;;;;18.46;58.59;100909.50;5084334;27;45520;-52
2022/10/31 10:03:59;;;;;;;;;18.00;14.75;;;;;18.47;58.26;100911.19;5076467;27;45464;-53
2022/10/31 10:06:28;;;;;;;;;18.25;14.75;;;;;18.46;58.29;100914.81;5067293;28;46076;-53
2022/10/31 10:08:53;;;;;;;;;19.50;18.25;;;;;18.45;58.57;100906.00;5078510;27;45521;-51
2022/10/31 10:12:17;;;;;;;;;21.75;19.50;;;;;18.47;58.32;100896.19;5077074;28;46110;-53
2022/10/31 10:14:50;;;;;;;;;23.25;20.25;;;;;18.51;58.59;100894.19;5054400;28;46204;-53
2022/10/31 10:17:31;;;;;;;;;18.50;13.25;;;;;18.52;58.37;100878.22;5076384;27;45975;-52
2022/10/31 10:20:10;;;;;;;;;25.50;17.75;;;;;18.54;58.34;100865.72;5088623;27;45287;-52
2022/10/31 10:23:02;;;;;;;;;21.50;19.50;;;;;18.58;58.25;100859.28;5073935;28;45801;-55
2022/10/31 10:25:41;;;;;;;;;23.00;19.75;;;;;18.59;58.21;100852.19;5064020;28;46553;-55
2022/10/31 10:28:22;;;;;;;;;19.00;15.00;;;;;18.64;58.35;100859.88;5074634;27;45417;-53
2022/10/31 10:30:55;;;;;;;;;23.25;16.25;;;;;18.69;58.11;100855.16;5072563;28;46527;-53
2022/10/31 10:33:30;;;;;;;;;18.50;18.00;;;;;18.72;57.73;100845.22;5070722;27;45521;-52
2022/10/31 10:36:00;;;;;;;;;25.00;16.50;;;;;18.73;57.63;100831.03;5073237;27;46457;-53
2022/10/31 10:38:37;;;;;;;;;23.25;15.75;;;;;18.75;57.92;100836.22;5069303;28;45474;-52
2022/10/31 10:41:07;;;;;;;;;19.75;15.75;;;;;18.83;57.77;100830.50;5071417;27;45377;-54
2022/10/31 10:43:35;;;;;;;;;18.00;16.25;;;;;18.88;57.54;100829.28;5087406;27;45330;-51
2022/10/31 10:49:19;;;;;;;;;21.25;16.50;;;;;19.04;57.32;100818.59;5073683;27;45540;-51
2022/10/31 10:52:07;;;;;;;;;24.50;18.25;;;;;19.11;57.35;100806.66;5069649;27;45550;-52
2022/10/31 10:54:41;;;;;;;;;20.25;14.50;;;;;19.19;57.32;100805.34;5046714;28;45605;-52
2022/10/31 10:57:13;;;;;;;;;17.75;15.25;;;;;19.28;57.21;100796.78;5073608;27;47285;-54
2022/10/31 10:59:38;;;;;;;;;15.00;14.75;;;;;19.37;57.01;100775.00;5079167;27;45459;-49
2022/10/31 11:02:17;;;;;;;;;22.50;18.25;;;;;19.47;56.63;100754.03;5072912;27;45436;-53
2022/10/31 11:04:43;;;;;;;;;22.75;16.25;;;;;19.56;56.32;100750.78;5073052;28;45283;-55
2022/10/31 11:07:10;;;;;;;;;18.50;14.75;;;;;19.62;56.03;100739.78;5076875;27;75123;-54
2022/10/31 11:09:36;;;;;;;;;17.00;13.50;;;;;19.68;55.76;100733.22;5084966;27;45504;-53
2022/10/31 11:12:14;;;;;;;;;19.50;15.75;;;;;19.71;55.86;100731.19;5071499;28;45422;-54
2022/10/31 11:14:51;;;;;;;;;13.25;11.50;;;;;19.76;55.34;100728.28;5066874;28;45529;-52
2022/10/31 11:17:25;;;;;;;;;15.75;14.50;;;;;19.79;55.15;100714.78;5078492;28;46558;-50
2022/10/31 11:20:00;;;;;;;;;16.75;15.50;;;;;19.80;55.22;100715.66;5068758;28;45872;-50
2022/10/31 11:22:26;;;;;;;;;14.00;12.75;;;;;19.83;55.15;100718.09;5068924;27;47181;-49
2022/10/31 11:24:51;;;;;;;;;14.00;13.00;;;;;19.84;54.88;100731.28;5069638;28;65839;-51